Time;durP1;ratioP1;P1;durP2;ratioP2;P2;SDS_P1;SDS_P2;PMS_P1;PMS_P2;Temp;Humidity;BMP_temperature;BMP_pressure;BME280_temperature;BME280_humidity;BME280_pressure;Samples;Min_cycle;Max_cycle;Signal;HPM_P1;HPM_P2
2022/11/19 00:02:14;;;;;;;;;;;3.30;99.90;;;;;;5022590;28;20037;-86
2022/11/19 00:04:40;;;;;;;;;;;0.50;99.90;;;;;;5022308;28;19924;-84
2022/11/19 00:07:05;;;;;;;;;;;0.80;99.90;;;;;;5022158;28;19924;-85
2022/11/19 00:09:31;;;;;;;;;;;2.70;99.90;;;;;;5022466;28;19932;-85
2022/11/19 00:14:41;;;;;;;;;;;2.70;99.90;;;;;;5025282;28;19968;-85
2022/11/19 00:17:06;;;;;;;;;;;1.60;99.90;;;;;;5039113;28;19998;-86
2022/11/19 00:19:32;;;;;;;;;;;3.20;99.90;;;;;;5006260;28;19924;-85
2022/11/19 00:21:57;;;;;;;;;;;2.70;99.90;;;;;;5021841;28;20299;-86
2022/11/19 00:24:26;;;;;;;;;;;1.10;99.90;;;;;;5038758;28;19976;-85
2022/11/19 00:26:51;;;;;;;;;;;2.80;99.90;;;;;;5038670;28;19928;-85
2022/11/19 00:29:17;;;;;;;;;;;0.50;99.90;;;;;;5021801;28;19985;-85
2022/11/19 00:31:42;;;;;;;;;;;0.30;99.90;;;;;;5039018;28;19931;-85
2022/11/19 00:34:09;;;;;;;;;;;1.10;99.90;;;;;;5039348;28;19947;-84
2022/11/19 00:36:34;;;;;;;;;;;0.20;99.90;;;;;;5038718;28;19928;-84
2022/11/19 00:39:00;;;;;;;;;;;0.10;99.90;;;;;;5005590;28;20391;-84
2022/11/19 00:41:26;;;;;;;;;;;0.10;99.90;;;;;;5038139;28;19925;-85
2022/11/19 00:43:51;;;;;;;;;;;0.00;99.90;;;;;;5038385;28;19925;-85
2022/11/19 00:46:17;;;;;;;;;;;0.00;99.90;;;;;;5038525;28;20011;-84
2022/11/19 00:48:42;;;;;;;;;;;0.00;99.90;;;;;;5038319;28;19983;-85
2022/11/19 00:51:09;;;;;;;;;;;0.00;99.90;;;;;;5038168;28;20027;-85
2022/11/19 00:53:35;;;;;;;;;;;0.10;99.90;;;;;;5055715;28;20292;-85
2022/11/19 00:56:02;;;;;;;;;;;0.00;99.90;;;;;;5038066;28;19925;-85
2022/11/19 00:58:28;;;;;;;;;;;0.00;99.90;;;;;;5037838;28;20020;-84
2022/11/19 01:00:54;;;;;;;;;;;;;;;;;;5038374;28;20019;-85
2022/11/19 01:03:20;;;;;;;;;;;;;;;;;;5037929;28;19975;-85
2022/11/19 01:05:46;;;;;;;;;;;;;;;;;;5021608;28;19928;-86
2022/11/19 01:08:12;;;;;;;;;;;;;;;;;;5022142;28;19979;-84
2022/11/19 01:10:38;;;;;;;;;;;-0.10;99.90;;;;;;5037879;28;19931;-84
2022/11/19 01:15:48;;;;;;;;;;;-0.20;99.90;;;;;;5036986;28;20364;-85
2022/11/19 01:18:14;;;;;;;;;;;;;;;;;;5037324;28;19976;-84
2022/11/19 01:20:40;;;;;;;;;;;-0.20;99.90;;;;;;5037667;28;20280;-85
2022/11/19 01:23:05;;;;;;;;;;;-0.20;99.90;;;;;;5021345;28;19948;-86
2022/11/19 01:25:31;;;;;;;;;;;-0.30;99.90;;;;;;5021094;28;19924;-85
2022/11/19 01:27:57;;;;;;;;;;;-0.30;99.90;;;;;;5021498;28;19929;-85
2022/11/19 01:30:23;;;;;;;;;;;-0.50;99.90;;;;;;5021102;28;20386;-85
2022/11/19 01:32:48;;;;;;;;;;;-0.30;99.90;;;;;;5021018;28;19974;-87
2022/11/19 01:35:14;;;;;;;;;;;-0.50;99.90;;;;;;5037181;28;19932;-85
2022/11/19 01:37:40;;;;;;;;;;;;;;;;;;5020838;28;19925;-85
2022/11/19 01:40:06;;;;;;;;;;;-0.40;99.90;;;;;;5020767;28;19928;-86
2022/11/19 01:42:52;;;;;;;;;;;;;;;;;;5005265;28;20015;-86
2022/11/19 01:45:21;;;;;;;;;;;-0.30;99.90;;;;;;5020658;28;20316;-85
2022/11/19 01:47:47;;;;;;;;;;;;;;;;;;5036918;28;19931;-85
2022/11/19 01:50:13;;;;;;;;;;;;;;;;;;5020557;28;19925;-84
2022/11/19 01:52:39;;;;;;;;;;;;;;;;;;5019850;28;19928;-85
2022/11/19 01:55:05;;;;;;;;;;;;;;;;;;5037312;28;19935;-86
2022/11/19 01:57:30;;;;;;;;;;;-0.40;99.90;;;;;;5037037;28;19925;-85
2022/11/19 01:59:56;;;;;;;;;;;-0.30;99.90;;;;;;5020808;28;19925;-85
2022/11/19 02:02:22;;;;;;;;;;;-0.30;99.90;;;;;;5036917;28;19924;-85
2022/11/19 02:04:50;;;;;;;;;;;;;;;;;;5036928;28;19932;-85
2022/11/19 02:07:17;;;;;;;;;;;-0.30;99.90;;;;;;5019964;28;19932;-85
2022/11/19 02:09:43;;;;;;;;;;;;;;;;;;5054378;28;19947;-86
2022/11/19 02:12:25;;;;;;;;;;;-0.40;99.90;;;;;;5036676;28;20027;-85
2022/11/19 02:15:02;;;;;;;;;;;-0.50;99.90;;;;;;5037677;28;19925;-84
2022/11/19 02:17:27;;;;;;;;;;;-0.50;99.90;;;;;;5037537;28;20330;-85
2022/11/19 02:20:03;;;;;;;;;;;-0.60;99.90;;;;;;5036961;28;20055;-85
2022/11/19 02:22:29;;;;;;;;;;;-0.50;99.90;;;;;;5020003;28;19954;-85
2022/11/19 02:25:00;;;;;;;;;;;-0.70;99.90;;;;;;5036471;28;19936;-86
2022/11/19 02:27:29;;;;;;;;;;;-0.60;99.90;;;;;;5036213;28;19925;-85
2022/11/19 02:30:03;;;;;;;;;;;-0.70;99.90;;;;;;5036822;28;20323;-85
2022/11/19 02:32:33;;;;;;;;;;;-0.70;99.90;;;;;;5053973;28;19928;-85
2022/11/19 02:35:04;;;;;;;;;;;-0.70;99.90;;;;;;5020838;28;19978;-86
2022/11/19 02:37:35;;;;;;;;;;;-0.80;99.90;;;;;;5020245;28;20268;-86
2022/11/19 02:40:04;;;;;;;;;;;-0.70;99.90;;;;;;5036267;28;19924;-85
2022/11/19 02:42:34;;;;;;;;;;;-0.80;99.90;;;;;;5036662;28;19924;-85
2022/11/19 02:45:26;;;;;;;;;;;-0.80;99.90;;;;;;5036783;28;19924;-86
2022/11/19 02:47:53;;;;;;;;;;;-0.80;99.90;;;;;;5031298;28;20019;-85
2022/11/19 02:50:18;;;;;;;;;;;-0.80;99.90;;;;;;5036217;28;19925;-86
2022/11/19 02:52:45;;;;;;;;;;;-0.90;99.90;;;;;;5019197;28;19929;-86
2022/11/19 02:55:12;;;;;;;;;;;-1.00;99.90;;;;;;5035920;28;19977;-86
2022/11/19 02:57:39;;;;;;;;;;;-1.10;99.90;;;;;;5003352;28;19983;-85
2022/11/19 03:05:59;;;;;;;;;;;-1.00;99.90;;;;;;5035193;28;19992;-86
2022/11/19 03:08:25;;;;;;;;;;;-1.10;99.90;;;;;;5035937;28;20392;-86
2022/11/19 03:10:51;;;;;;;;;;;-1.10;99.90;;;;;;5019496;28;20415;-86
2022/11/19 03:19:01;;;;;;;;;;;-0.80;99.90;;;;;;5036279;28;19935;-85
2022/11/19 03:21:30;;;;;;;;;;;-1.20;99.90;;;;;;5019255;28;20015;-85
2022/11/19 03:24:01;;;;;;;;;;;-1.20;99.90;;;;;;5035816;28;20383;-86
2022/11/19 03:26:32;;;;;;;;;;;-1.30;99.90;;;;;;5019558;28;20051;-86
2022/11/19 03:29:00;;;;;;;;;;;-1.30;99.90;;;;;;5035750;28;19925;-87
2022/11/19 03:31:27;;;;;;;;;;;-1.30;99.90;;;;;;5018803;28;19932;-85
2022/11/19 03:33:56;;;;;;;;;;;-1.40;99.90;;;;;;5019345;28;19924;-86
2022/11/19 03:36:40;;;;;;;;;;;1.60;99.90;;;;;;5019185;28;19925;-86
2022/11/19 03:39:12;;;;;;;;;;;-1.30;99.90;;;;;;5036964;28;20355;-86
2022/11/19 03:41:39;;;;;;;;;;;-1.30;99.90;;;;;;5039441;28;19924;-86
2022/11/19 03:44:27;;;;;;;;;;;1.90;99.90;;;;;;5039298;28;20309;-86
2022/11/19 03:46:58;;;;;;;;;;;-1.40;99.90;;;;;;5009507;28;19924;-86
2022/11/19 03:49:30;;;;;;;;;;;-1.40;99.90;;;;;;5040070;28;20272;-86
2022/11/19 03:51:58;;;;;;;;;;;-1.40;99.90;;;;;;5039701;28;20379;-86
2022/11/19 03:54:24;;;;;;;;;;;-1.30;99.90;;;;;;5038704;28;19925;-86
2022/11/19 03:56:50;;;;;;;;;;;-1.40;99.90;;;;;;5022653;28;19947;-86
2022/11/19 03:59:15;;;;;;;;;;;-1.40;99.90;;;;;;5022823;28;20016;-86
2022/11/19 04:01:42;;;;;;;;;;;-1.50;99.90;;;;;;5006201;28;20357;-86
2022/11/19 04:06:53;;;;;;;;;;;-1.60;99.90;;;;;;5039540;28;20016;-86
2022/11/19 04:09:18;;;;;;;;;;;-1.50;99.90;;;;;;5056371;28;19925;-86
2022/11/19 04:11:44;;;;;;;;;;;-1.50;99.90;;;;;;5005958;28;20048;-86
2022/11/19 04:14:09;;;;;;;;;;;-1.60;99.90;;;;;;5022712;28;20015;-86
2022/11/19 04:16:35;;;;;;;;;;;-1.60;99.90;;;;;;5039613;28;19947;-86
2022/11/19 04:19:01;;;;;;;;;;;-1.70;99.90;;;;;;5045474;28;20020;-87
2022/11/19 04:21:26;;;;;;;;;;;-1.50;99.90;;;;;;5056538;28;20412;-86
2022/11/19 04:23:52;;;;;;;;;;;-1.50;99.90;;;;;;5072573;28;20011;-87
2022/11/19 04:26:18;;;;;;;;;;;2.10;99.90;;;;;;5056804;28;19925;-86
2022/11/19 04:28:43;;;;;;;;;;;-1.70;99.90;;;;;;5058268;28;19924;-85
2022/11/19 04:31:09;;;;;;;;;;;-1.70;99.90;;;;;;5055174;28;19925;-86
2022/11/19 04:33:35;;;;;;;;;;;-1.70;99.90;;;;;;5053894;28;19979;-85
2022/11/19 04:36:01;;;;;;;;;;;-1.60;99.90;;;;;;5035646;28;20015;-86
2022/11/19 04:38:26;;;;;;;;;;;-1.80;99.90;;;;;;5023408;28;19976;-86
2022/11/19 04:40:52;;;;;;;;;;;-1.70;99.90;;;;;;5022730;28;20066;-86
2022/11/19 04:43:18;;;;;;;;;;;-1.60;99.90;;;;;;5039333;28;19924;-86
2022/11/19 04:45:43;;;;;;;;;;;-1.70;99.90;;;;;;5038792;28;19924;-86
2022/11/19 04:48:09;;;;;;;;;;;-1.80;99.90;;;;;;5022112;28;19924;-86
2022/11/19 04:50:34;;;;;;;;;;;-1.70;99.90;;;;;;5024030;28;20269;-85
2022/11/19 04:53:00;;;;;;;;;;;-1.70;99.90;;;;;;5035448;28;19925;-85
2022/11/19 04:55:26;;;;;;;;;;;-1.70;99.90;;;;;;5052133;28;20368;-86
2022/11/19 04:57:52;;;;;;;;;;;-1.80;99.90;;;;;;5034563;28;19932;-85
2022/11/19 05:00:18;;;;;;;;;;;-1.90;99.90;;;;;;5034698;28;19931;-85
2022/11/19 05:02:44;;;;;;;;;;;-1.80;99.90;;;;;;5051974;28;19924;-87
2022/11/19 05:05:10;;;;;;;;;;;-1.80;99.90;;;;;;5033613;28;20007;-86
2022/11/19 05:07:35;;;;;;;;;;;-1.90;99.90;;;;;;5039356;28;19975;-85
2022/11/19 05:10:01;;;;;;;;;;;-1.90;99.90;;;;;;5038164;28;19925;-85
2022/11/19 05:12:26;;;;;;;;;;;-2.00;99.90;;;;;;5038579;28;19925;-85
2022/11/19 05:14:52;;;;;;;;;;;-1.90;99.90;;;;;;5037955;28;20322;-85
2022/11/19 05:17:17;;;;;;;;;;;-2.00;99.90;;;;;;5040308;28;19925;-85
2022/11/19 05:19:43;;;;;;;;;;;-2.20;99.90;;;;;;5039945;28;19931;-85
2022/11/19 05:22:09;;;;;;;;;;;-2.00;99.90;;;;;;5021042;28;19925;-85
2022/11/19 05:24:35;;;;;;;;;;;-2.20;99.90;;;;;;5021396;28;19936;-85
2022/11/19 05:27:00;;;;;;;;;;;-2.10;99.90;;;;;;5021450;28;19924;-85
2022/11/19 05:29:26;;;;;;;;;;;-2.10;99.90;;;;;;5037925;28;19932;-85
2022/11/19 05:31:51;;;;;;;;;;;-2.20;99.90;;;;;;5038446;28;19932;-85
2022/11/19 05:34:17;;;;;;;;;;;-2.20;99.90;;;;;;5038230;28;20412;-85
2022/11/19 05:36:42;;;;;;;;;;;-2.30;99.90;;;;;;5037437;28;19925;-84
2022/11/19 05:39:08;;;;;;;;;;;-2.50;99.90;;;;;;5038137;28;20015;-85
2022/11/19 05:41:33;;;;;;;;;;;-2.30;99.90;;;;;;5021394;28;19924;-85
2022/11/19 05:43:59;;;;;;;;;;;-2.20;99.90;;;;;;5021033;28;20035;-85
2022/11/19 05:46:25;;;;;;;;;;;;;;;;;;5037722;28;19932;-85
2022/11/19 05:48:51;;;;;;;;;;;-2.30;99.90;;;;;;5037124;28;19928;-84
2022/11/19 05:51:16;;;;;;;;;;;-2.50;99.90;;;;;;5038038;28;19925;-84
2022/11/19 05:53:42;;;;;;;;;;;-2.40;99.90;;;;;;5020735;28;20370;-85
2022/11/19 05:56:08;;;;;;;;;;;-2.40;99.90;;;;;;5020557;28;19970;-84
2022/11/19 05:58:33;;;;;;;;;;;-2.40;99.90;;;;;;5037523;28;19929;-85
2022/11/19 06:00:59;;;;;;;;;;;-2.40;99.90;;;;;;5020685;28;20373;-85
2022/11/19 06:03:25;;;;;;;;;;;-2.50;99.90;;;;;;5036998;28;19936;-85
2022/11/19 06:05:50;;;;;;;;;;;-2.50;99.90;;;;;;5021342;28;19932;-85
2022/11/19 06:08:16;;;;;;;;;;;-2.50;99.90;;;;;;5037174;28;19931;-85
2022/11/19 06:10:42;;;;;;;;;;;-2.60;99.90;;;;;;5036757;28;19932;-85
2022/11/19 06:13:07;;;;;;;;;;;-2.60;99.90;;;;;;5054297;28;20351;-84
2022/11/19 06:15:33;;;;;;;;;;;-2.70;99.90;;;;;;5020388;28;19925;-85
2022/11/19 06:17:59;;;;;;;;;;;-2.50;99.90;;;;;;5054091;28;19924;-86
2022/11/19 06:20:24;;;;;;;;;;;-2.60;99.90;;;;;;5036126;28;20023;-84
2022/11/19 06:22:50;;;;;;;;;;;-2.50;99.90;;;;;;5037063;28;19931;-85
2022/11/19 06:25:16;;;;;;;;;;;-2.50;99.90;;;;;;5036030;28;20011;-85
2022/11/19 06:27:42;;;;;;;;;;;-2.60;99.90;;;;;;5019853;28;19925;-85
2022/11/19 06:30:08;;;;;;;;;;;-2.80;99.90;;;;;;5036266;28;19932;-85
2022/11/19 06:32:34;;;;;;;;;;;-2.60;99.90;;;;;;5053882;28;19925;-85
2022/11/19 06:34:59;;;;;;;;;;;-2.60;99.90;;;;;;5036303;28;19925;-85
2022/11/19 06:37:25;;;;;;;;;;;-2.70;99.90;;;;;;5035928;28;19925;-85
2022/11/19 06:39:51;;;;;;;;;;;-2.70;99.90;;;;;;5020745;28;19924;-85
2022/11/19 06:45:08;;;;;;;;;;;-2.60;99.90;;;;;;5036544;28;19979;-85
2022/11/19 06:47:34;;;;;;;;;;;-2.60;99.90;;;;;;5019807;28;20364;-85
2022/11/19 06:50:00;;;;;;;;;;;-2.70;99.90;;;;;;5036247;28;19925;-86
2022/11/19 06:52:26;;;;;;;;;;;-2.70;99.90;;;;;;5019280;28;20388;-85
2022/11/19 06:54:51;;;;;;;;;;;-2.80;99.90;;;;;;5019095;28;19925;-85
2022/11/19 06:57:17;;;;;;;;;;;-2.70;99.90;;;;;;5036503;28;19924;-85
2022/11/19 06:59:42;;;;;;;;;;;-2.70;99.90;;;;;;5019940;28;20011;-85
2022/11/19 07:02:11;;;;;;;;;;;-2.60;99.90;;;;;;5053722;28;20451;-85
2022/11/19 07:04:37;;;;;;;;;;;-2.60;99.90;;;;;;5036943;28;19932;-86
2022/11/19 07:07:03;;;;;;;;;;;-2.60;99.90;;;;;;5019358;28;19925;-87
2022/11/19 07:09:28;;;;;;;;;;;-2.60;99.90;;;;;;5019616;28;19925;-87
2022/11/19 07:11:57;;;;;;;;;;;-2.60;99.90;;;;;;5036619;28;20306;-86
2022/11/19 07:14:23;;;;;;;;;;;-2.80;99.90;;;;;;5020959;28;19925;-83
2022/11/19 07:16:48;;;;;;;;;;;-2.90;99.90;;;;;;5039825;28;19979;-84
2022/11/19 07:19:14;;;;;;;;;;;-1.80;99.90;;;;;;5040819;28;19929;-84
2022/11/19 07:21:39;;;;;;;;;;;-2.60;99.90;;;;;;5023276;28;20353;-86
2022/11/19 07:24:06;;;;;;;;;;;-2.60;99.90;;;;;;5039868;28;19925;-87
2022/11/19 07:26:32;;;;;;;;;;;-2.70;99.90;;;;;;5040504;28;19925;-87
2022/11/19 07:29:02;;;;;;;;;;;-2.60;99.90;;;;;;5007592;28;19924;-87
2022/11/19 07:31:28;;;;;;;;;;;-2.60;99.90;;;;;;5040178;28;19987;-87
2022/11/19 07:33:53;;;;;;;;;;;-1.50;99.90;;;;;;5007357;28;19948;-87
2022/11/19 07:36:19;;;;;;;;;;;-2.60;99.90;;;;;;5024120;28;19925;-87
2022/11/19 07:38:49;;;;;;;;;;;-2.70;99.90;;;;;;5039567;28;19928;-87
2022/11/19 07:43:59;;;;;;;;;;;-2.60;99.90;;;;;;5039496;28;19925;-84
2022/11/19 07:46:24;;;;;;;;;;;-2.60;99.90;;;;;;5039232;28;20054;-84
2022/11/19 07:48:54;;;;;;;;;;;-2.60;99.90;;;;;;5056993;28;19935;-86
2022/11/19 07:51:20;;;;;;;;;;;-2.50;99.90;;;;;;5022207;28;19925;-87
2022/11/19 07:53:46;;;;;;;;;;;-2.50;99.90;;;;;;5021936;28;19932;-89
2022/11/19 07:56:11;;;;;;;;;;;-2.40;99.90;;;;;;5038614;28;19992;-88
2022/11/19 07:58:37;;;;;;;;;;;-2.40;99.90;;;;;;5023778;28;19924;-90
2022/11/19 08:01:09;;;;;;;;;;;-2.30;99.90;;;;;;5007334;28;20019;-87
2022/11/19 08:03:35;;;;;;;;;;;-2.40;99.90;;;;;;5022368;28;20446;-88
2022/11/19 08:06:07;;;;;;;;;;;-2.30;99.90;;;;;;5022442;28;19928;-90
2022/11/19 08:08:33;;;;;;;;;;;-2.30;99.90;;;;;;5038954;28;20015;-89
2022/11/19 08:11:06;;;;;;;;;;;-2.50;99.90;;;;;;5022732;28;19987;-88
2022/11/19 08:13:32;;;;;;;;;;;-2.40;99.90;;;;;;5022720;28;19925;-87
2022/11/19 08:15:58;;;;;;;;;;;-2.40;99.90;;;;;;5022518;28;20448;-87
2022/11/19 08:18:24;;;;;;;;;;;-2.20;99.90;;;;;;5056458;28;19975;-86
2022/11/19 08:20:49;;;;;;;;;;;-2.40;99.90;;;;;;5022174;28;19925;-86
2022/11/19 08:23:15;;;;;;;;;;;-2.20;99.90;;;;;;5005830;28;19925;-87
2022/11/19 08:25:42;;;;;;;;;;;-2.10;99.90;;;;;;5038370;28;19925;-86
2022/11/19 08:28:08;;;;;;;;;;;-2.30;99.90;;;;;;5022815;28;19932;-86
2022/11/19 08:30:34;;;;;;;;;;;-2.10;99.90;;;;;;5022057;28;20063;-86
2022/11/19 08:33:00;;;;;;;;;;;-2.10;99.90;;;;;;5038634;28;20369;-86
2022/11/19 08:35:25;;;;;;;;;;;-2.00;99.90;;;;;;5055936;28;19987;-86
2022/11/19 08:37:51;;;;;;;;;;;-2.10;99.90;;;;;;5022512;28;19925;-85
2022/11/19 08:40:17;;;;;;;;;;;0.70;99.90;;;;;;5038525;28;19925;-86
2022/11/19 08:43:01;;;;;;;;;;;-1.80;99.90;;;;;;5038439;28;19925;-86
2022/11/19 08:45:26;;;;;;;;;;;-1.80;99.90;;;;;;5039198;28;20264;-85
2022/11/19 08:47:52;;;;;;;;;;;0.90;99.90;;;;;;5038749;28;19925;-85
2022/11/19 08:50:18;;;;;;;;;;;0.90;99.90;;;;;;5038499;28;19931;-84
2022/11/19 08:52:43;;;;;;;;;;;-1.60;99.90;;;;;;5022366;28;20241;-84
2022/11/19 08:55:09;;;;;;;;;;;1.20;99.90;;;;;;5021519;28;19931;-85
2022/11/19 08:57:34;;;;;;;;;;;-1.60;99.90;;;;;;5021590;28;19933;-86
2022/11/19 09:00:00;;;;;;;;;;;1.40;99.90;;;;;;5021919;28;20011;-86
2022/11/19 09:02:26;;;;;;;;;;;-1.60;99.90;;;;;;5038260;28;20396;-86
2022/11/19 09:04:51;;;;;;;;;;;-1.50;99.90;;;;;;5022195;28;20298;-85
2022/11/19 09:07:17;;;;;;;;;;;-1.50;99.90;;;;;;5021926;28;19925;-85
2022/11/19 09:09:42;;;;;;;;;;;1.70;99.90;;;;;;5038153;28;20015;-85
2022/11/19 09:12:08;;;;;;;;;;;-1.40;99.90;;;;;;5055359;28;20281;-85
2022/11/19 09:14:33;;;;;;;;;;;0.40;99.90;;;;;;5056077;28;19932;-87
2022/11/19 09:17:00;;;;;;;;;;;1.40;99.90;;;;;;5037532;28;19931;-86
2022/11/19 09:19:25;;;;;;;;;;;-1.30;99.90;;;;;;5037680;28;19941;-86
2022/11/19 09:21:51;;;;;;;;;;;1.50;99.90;;;;;;5037688;28;20289;-86
2022/11/19 09:24:17;;;;;;;;;;;0.00;99.90;;;;;;5037229;28;19925;-85
2022/11/19 09:26:42;;;;;;;;;;;-1.10;99.90;;;;;;5036997;28;19932;-85
2022/11/19 09:29:08;;;;;;;;;;;0.10;99.90;;;;;;5004841;28;19929;-86
2022/11/19 09:31:33;;;;;;;;;;;0.10;99.90;;;;;;5037139;28;19983;-86
2022/11/19 09:33:59;;;;;;;;;;;-1.20;99.90;;;;;;5037207;28;19929;-86
2022/11/19 09:36:25;;;;;;;;;;;1.30;99.90;;;;;;5036391;28;19972;-86
2022/11/19 09:38:54;;;;;;;;;;;0.40;99.90;;;;;;5055373;28;19950;-86
2022/11/19 09:41:42;;;;;;;;;;;-0.20;99.90;;;;;;5020794;28;19925;-86
2022/11/19 09:44:08;;;;;;;;;;;-0.90;99.90;;;;;;5020757;28;19931;-86
2022/11/19 09:47:03;;;;;;;;;;;1.00;99.90;;;;;;5054555;28;19924;-86
2022/11/19 09:49:31;;;;;;;;;;;-0.70;99.90;;;;;;4950748;28;20282;-86
2022/11/19 09:52:00;;;;;;;;;;;-0.70;99.90;;;;;;5054916;28;19925;-86
2022/11/19 09:54:26;;;;;;;;;;;1.00;99.90;;;;;;5036752;28;19931;-88
2022/11/19 09:56:54;;;;;;;;;;;0.20;99.90;;;;;;5037615;28;20336;-86
2022/11/19 09:59:34;;;;;;;;;;;1.60;99.90;;;;;;5036697;28;20009;-86
2022/11/19 10:01:59;;;;;;;;;;;-0.50;99.90;;;;;;5036511;28;19925;-87
2022/11/19 10:04:27;;;;;;;;;;;1.60;99.90;;;;;;5036597;28;19986;-87
2022/11/19 10:07:11;;;;;;;;;;;0.70;99.90;;;;;;5036919;28;19925;-87
2022/11/19 10:09:39;;;;;;;;;;;-0.30;99.90;;;;;;5036733;28;20003;-87
2022/11/19 10:12:05;;;;;;;;;;;-0.30;99.90;;;;;;5036713;28;19925;-87
2022/11/19 10:14:40;;;;;;;;;;;1.90;99.90;;;;;;5036687;28;19932;-87
2022/11/19 10:17:21;;;;;;;;;;;-0.20;99.90;;;;;;5037534;28;20023;-87
2022/11/19 10:19:53;;;;;;;;;;;-0.20;99.90;;;;;;5037421;28;20373;-88
2022/11/19 10:22:22;;;;;;;;;;;-0.10;99.90;;;;;;5036632;28;19924;-87
2022/11/19 10:25:11;;;;;;;;;;;-0.10;99.90;;;;;;5036485;28;19924;-87
2022/11/19 10:27:41;;;;;;;;;;;0.00;99.90;;;;;;5022924;28;19925;-88
2022/11/19 10:30:14;;;;;;;;;;;2.10;99.90;;;;;;5020231;28;20257;-87
2022/11/19 10:32:43;;;;;;;;;;;0.20;99.90;;;;;;5036471;28;20012;-87
2022/11/19 10:35:16;;;;;;;;;;;1.50;99.90;;;;;;5036365;28;19925;-86
2022/11/19 10:37:49;;;;;;;;;;;0.30;99.90;;;;;;5037102;28;19932;-86
2022/11/19 10:40:17;;;;;;;;;;;0.30;99.90;;;;;;5037179;28;19929;-86
2022/11/19 10:42:45;;;;;;;;;;;0.30;99.90;;;;;;5036076;28;19991;-88
2022/11/19 10:45:15;;;;;;;;;;;1.20;99.90;;;;;;5036292;28;20011;-87
2022/11/19 10:47:48;;;;;;;;;;;0.40;99.90;;;;;;5018923;28;19932;-86
2022/11/19 10:50:18;;;;;;;;;;;0.40;99.90;;;;;;5036559;28;19925;-87
2022/11/19 10:52:58;;;;;;;;;;;0.60;99.90;;;;;;5035909;28;19925;-88
2022/11/19 10:55:24;;;;;;;;;;;0.60;99.90;;;;;;5018503;28;19932;-89
2022/11/19 10:57:54;;;;;;;;;;;0.70;99.90;;;;;;5019733;28;19925;-88
2022/11/19 11:00:19;;;;;;;;;;;0.70;99.90;;;;;;5053680;28;19925;-87
2022/11/19 11:02:49;;;;;;;;;;;0.70;99.90;;;;;;5035942;28;19932;-88
2022/11/19 11:05:16;;;;;;;;;;;2.60;99.90;;;;;;5019186;28;20055;-88
2022/11/19 11:07:47;;;;;;;;;;;1.20;99.90;;;;;;5035193;28;19925;-88
2022/11/19 11:10:31;;;;;;;;;;;2.30;99.90;;;;;;5036368;28;20261;-88
2022/11/19 11:15:43;;;;;;;;;;;1.90;99.90;;;;;;5036157;28;20019;-87
2022/11/19 11:18:09;;;;;;;;;;;1.20;99.90;;;;;;5035833;28;20434;-87
2022/11/19 11:20:36;;;;;;;;;;;2.40;99.90;;;;;;5035673;28;20288;-88
2022/11/19 11:23:15;;;;;;;;;;;2.30;99.90;;;;;;5035593;28;19932;-88
2022/11/19 11:25:50;;;;;;;;;;;1.10;99.90;;;;;;5036502;28;19925;-88
2022/11/19 11:28:17;;;;;;;;;;;1.20;99.90;;;;;;5035846;28;19924;-87
2022/11/19 11:30:50;;;;;;;;;;;2.20;99.90;;;;;;5019418;28;19925;-88
2022/11/19 11:33:35;;;;;;;;;;;1.20;99.90;;;;;;5019574;28;19925;-90
2022/11/19 11:36:03;;;;;;;;;;;1.20;99.90;;;;;;5019227;28;19931;-88
2022/11/19 11:38:29;;;;;;;;;;;3.40;99.90;;;;;;5035859;28;19973;-89
2022/11/19 11:41:05;;;;;;;;;;;1.70;99.90;;;;;;5035830;28;19929;-88
2022/11/19 11:43:32;;;;;;;;;;;1.30;99.90;;;;;;5035814;28;20070;-89
2022/11/19 11:46:03;;;;;;;;;;;3.10;99.90;;;;;;5019227;28;19932;-92
2022/11/19 11:48:33;;;;;;;;;;;1.40;99.90;;;;;;5018593;28;19933;-89
2022/11/19 11:50:59;;;;;;;;;;;2.40;99.90;;;;;;5019299;28;20280;-89
2022/11/19 11:53:31;;;;;;;;;;;1.50;99.90;;;;;;5018893;28;19928;-89
2022/11/19 11:55:58;;;;;;;;;;;1.40;99.90;;;;;;5018811;28;19976;-89
2022/11/19 11:58:42;;;;;;;;;;;1.40;99.90;;;;;;5002727;28;19924;-90
2022/11/19 12:01:12;;;;;;;;;;;1.40;99.90;;;;;;5022167;28;19971;-90
2022/11/19 12:03:58;;;;;;;;;;;1.50;99.90;;;;;;5039220;28;20296;-91
2022/11/19 12:06:30;;;;;;;;;;;1.50;99.90;;;;;;5022064;28;20383;-90
2022/11/19 12:09:06;;;;;;;;;;;1.70;99.90;;;;;;5042880;28;19929;-91
2022/11/19 12:11:53;;;;;;;;;;;1.70;99.90;;;;;;5042603;28;19932;-90
2022/11/19 12:14:39;;;;;;;;;;;1.70;99.90;;;;;;5024273;28;19924;-91
2022/11/19 12:17:21;;;;;;;;;;;2.10;99.90;;;;;;4996712;28;20323;-89
2022/11/19 12:19:57;;;;;;;;;;;1.90;99.90;;;;;;5039250;28;19929;-91
2022/11/19 12:22:28;;;;;;;;;;;0.80;99.90;;;;;;5039185;28;20352;-91
2022/11/19 12:24:57;;;;;;;;;;;1.90;99.90;;;;;;5022399;28;19968;-92
2022/11/19 12:27:29;;;;;;;;;;;2.10;99.90;;;;;;5022044;28;19972;-90
2022/11/19 12:30:29;;;;;;;;;;;1.90;99.90;;;;;;5021852;28;19932;-90
2022/11/19 12:32:54;;;;;;;;;;;2.00;99.90;;;;;;4987109;28;19986;-89
2022/11/19 12:35:40;;;;;;;;;;;0.80;99.90;;;;;;5038535;28;20352;-91
2022/11/19 12:38:10;;;;;;;;;;;3.40;99.90;;;;;;5020771;28;19956;-89
2022/11/19 12:40:35;;;;;;;;;;;2.00;99.90;;;;;;5038432;28;19925;-91
2022/11/19 12:43:07;;;;;;;;;;;3.70;99.90;;;;;;5038467;28;19947;-89
2022/11/19 12:45:35;;;;;;;;;;;2.10;99.90;;;;;;5021505;28;19925;-88
2022/11/19 12:48:04;;;;;;;;;;;3.60;99.90;;;;;;5037847;28;20388;-88
2022/11/19 12:50:33;;;;;;;;;;;2.10;99.90;;;;;;5038245;28;19929;-89
2022/11/19 12:53:18;;;;;;;;;;;3.50;99.90;;;;;;5021399;28;19931;-89
2022/11/19 12:55:53;;;;;;;;;;;2.40;99.90;;;;;;5019109;28;20017;-88
2022/11/19 12:58:20;;;;;;;;;;;2.20;99.90;;;;;;5018669;28;19932;-89
2022/11/19 13:00:50;;;;;;;;;;;2.30;99.90;;;;;;5019195;28;20316;-88
2022/11/19 13:03:20;;;;;;;;;;;1.70;99.90;;;;;;5002549;28;20308;-88
2022/11/19 13:06:06;;;;;;;;;;;3.00;99.90;;;;;;5017895;28;19932;-88
2022/11/19 13:08:32;;;;;;;;;;;2.40;99.90;;;;;;5001065;28;19925;-88
2022/11/19 13:11:20;;;;;;;;;;;4.10;99.90;;;;;;5001725;28;19979;-89
2022/11/19 13:13:49;;;;;;;;;;;2.50;99.90;;;;;;5017651;28;19948;-89
2022/11/19 13:16:16;;;;;;;;;;;2.60;99.90;;;;;;5018030;28;19929;-88
2022/11/19 13:18:44;;;;;;;;;;;2.80;99.90;;;;;;5002296;28;19932;-88
2022/11/19 13:21:19;;;;;;;;;;;3.60;99.90;;;;;;5017685;28;19929;-88
2022/11/19 13:23:46;;;;;;;;;;;2.70;99.90;;;;;;5001607;28;19929;-89
2022/11/19 13:26:13;;;;;;;;;;;4.20;99.90;;;;;;5017565;28;20324;-88
2022/11/19 13:28:42;;;;;;;;;;;2.60;99.90;;;;;;5017588;28;19925;-88
2022/11/19 13:31:15;;;;;;;;;;;2.60;99.90;;;;;;5001477;28;19925;-88
2022/11/19 13:33:47;;;;;;;;;;;2.70;99.90;;;;;;5018608;28;19979;-88
2022/11/19 13:36:24;;;;;;;;;;;4.30;99.90;;;;;;5000953;28;19925;-88
2022/11/19 13:39:03;;;;;;;;;;;2.60;99.90;;;;;;5017711;28;19925;-88
2022/11/19 13:41:31;;;;;;;;;;;2.60;99.90;;;;;;5000858;28;19926;-89
2022/11/19 13:46:56;;;;;;;;;;;4.30;99.90;;;;;;5003669;28;19972;-88
2022/11/19 13:49:40;;;;;;;;;;;2.60;99.90;;;;;;5034851;28;19925;-88
2022/11/19 13:52:09;;;;;;;;;;;2.60;99.90;;;;;;5001026;28;20309;-88
2022/11/19 13:54:36;;;;;;;;;;;3.20;99.90;;;;;;5012161;28;19999;-88
2022/11/19 13:57:03;;;;;;;;;;;4.20;99.90;;;;;;5037251;28;19932;-88
2022/11/19 13:59:31;;;;;;;;;;;4.20;99.90;;;;;;5037015;28;19932;-88
2022/11/19 14:02:23;;;;;;;;;;;2.60;99.90;;;;;;5036903;28;19991;-88
2022/11/19 14:05:08;;;;;;;;;;;2.60;99.90;;;;;;4999732;28;19932;-89
2022/11/19 14:07:52;;;;;;;;;;;2.40;99.90;;;;;;5019948;28;19980;-88
2022/11/19 14:10:24;;;;;;;;;;;2.30;99.90;;;;;;5036536;28;20312;-88
2022/11/19 14:12:49;;;;;;;;;;;2.20;99.90;;;;;;5020161;28;20411;-88
2022/11/19 14:27:16;;;;;;;;;;;3.20;99.90;;;;;;5037871;28;20360;-88
2022/11/19 14:29:44;;;;;;;;;;;2.00;99.90;;;;;;5036750;28;20332;-88
2022/11/19 14:32:10;;;;;;;;;;;1.90;99.90;;;;;;5036842;28;19972;-88
2022/11/19 14:34:39;;;;;;;;;;;1.90;99.90;;;;;;5020017;28;20347;-88
2022/11/19 14:37:14;;;;;;;;;;;1.80;99.90;;;;;;5036426;28;20369;-88
2022/11/19 14:39:42;;;;;;;;;;;1.80;99.90;;;;;;5036598;28;19991;-89
2022/11/19 14:42:15;;;;;;;;;;;2.40;99.90;;;;;;5019971;28;19925;-88
2022/11/19 14:44:45;;;;;;;;;;;1.80;99.90;;;;;;5019889;28;20281;-88
2022/11/19 14:47:23;;;;;;;;;;;3.60;99.90;;;;;;5036959;28;19946;-88
2022/11/19 14:49:50;;;;;;;;;;;1.70;99.90;;;;;;5019806;28;19924;-88
2022/11/19 14:52:35;;;;;;;;;;;3.50;99.90;;;;;;5019552;28;20395;-88
2022/11/19 14:55:23;;;;;;;;;;;1.70;99.90;;;;;;5019269;28;20402;-87
2022/11/19 14:58:00;;;;;;;;;;;1.60;99.90;;;;;;5036290;28;19928;-88
2022/11/19 15:00:29;;;;;;;;;;;1.50;99.90;;;;;;5020529;28;19924;-88
2022/11/19 15:02:55;;;;;;;;;;;1.40;99.90;;;;;;5019944;28;19976;-88
2022/11/19 15:05:34;;;;;;;;;;;3.20;99.90;;;;;;5004294;28;19974;-89
2022/11/19 15:08:15;;;;;;;;;;;1.30;99.90;;;;;;5019345;28;19932;-89
2022/11/19 15:11:00;;;;;;;;;;;1.30;99.90;;;;;;5019579;28;19932;-89
2022/11/19 15:13:33;;;;;;;;;;;1.30;99.90;;;;;;5020164;28;20348;-88
2022/11/19 15:16:17;;;;;;;;;;;1.10;99.90;;;;;;5019325;28;20453;-88
2022/11/19 15:18:51;;;;;;;;;;;1.80;99.90;;;;;;5035959;28;19932;-89
2022/11/19 15:21:26;;;;;;;;;;;2.80;99.90;;;;;;5037455;28;19976;-88
2022/11/19 15:24:01;;;;;;;;;;;1.00;99.90;;;;;;5020150;28;19925;-89